createdAt,value
2022-09-15T00:01:11.023Z,53.96
2022-09-15T00:03:39.063Z,54.06
2022-09-15T00:06:06.867Z,54.03
2022-09-15T00:08:34.598Z,54.21
2022-09-15T00:11:22.350Z,53.82
2022-09-15T00:13:50.898Z,53.99
2022-09-15T00:16:20.345Z,54.02
2022-09-15T00:18:50.873Z,53.97
2022-09-15T00:21:22.802Z,54.03
2022-09-15T00:23:50.935Z,53.99
2022-09-15T00:26:20.823Z,53.92
2022-09-15T00:28:48.598Z,53.94
2022-09-15T00:31:19.594Z,53.87
2022-09-15T00:33:48.774Z,54.11
2022-09-15T00:36:17.216Z,54.08
2022-09-15T00:38:45.048Z,53.93
2022-09-15T00:41:15.175Z,54.08
2022-09-15T00:44:02.407Z,54.03
2022-09-15T00:47:09.301Z,54.13
2022-09-15T00:49:40.494Z,54.29
2022-09-15T00:52:12.321Z,54.19
2022-09-15T00:54:55.126Z,54.12
2022-09-15T00:57:45.324Z,54.24
2022-09-15T01:00:16.550Z,54.34
2022-09-15T01:02:45.987Z,54.47
2022-09-15T01:05:17.636Z,54.23
2022-09-15T01:07:59.505Z,54.19
2022-09-15T01:10:30.308Z,54.08
2022-09-15T01:13:07.158Z,54.42
2022-09-15T01:15:43.763Z,54.79
2022-09-15T01:18:40.209Z,54.88
2022-09-15T01:21:34.557Z,54.76
2022-09-15T01:24:27.199Z,54.55
2022-09-15T01:27:13.880Z,54.69
2022-09-15T01:30:11.754Z,54.75
2022-09-15T01:33:11.670Z,54.68
2022-09-15T01:35:57.141Z,54.88
2022-09-15T01:38:42.121Z,54.76
2022-09-15T01:41:44.312Z,54.75
2022-09-15T01:44:40.813Z,54.99
2022-09-15T01:47:11.705Z,54.98
2022-09-15T01:49:55.665Z,55.09
2022-09-15T01:52:24.865Z,55.15
2022-09-15T01:54:57.359Z,55.10
2022-09-15T01:57:25.140Z,55.17
2022-09-15T01:59:54.708Z,55.35
2022-09-15T02:02:35.830Z,55.92
2022-09-15T02:05:16.577Z,55.70
2022-09-15T02:08:05.132Z,55.80
2022-09-15T02:10:44.001Z,56.18
2022-09-15T02:13:16.984Z,55.85
2022-09-15T02:15:57.979Z,56.11
2022-09-15T02:19:02.137Z,56.24
2022-09-15T02:21:55.777Z,55.90
2022-09-15T02:24:29.134Z,56.21
2022-09-15T02:26:57.652Z,56.22
2022-09-15T02:29:28.288Z,55.80
2022-09-15T02:32:03.788Z,55.67
2022-09-15T02:34:38.619Z,55.46
2022-09-15T02:37:06.771Z,56.27
2022-09-15T02:39:39.903Z,56.60
2022-09-15T02:42:07.551Z,57.24
2022-09-15T02:44:35.325Z,57.62
2022-09-15T02:47:03.984Z,58.13
2022-09-15T02:49:31.234Z,57.86
2022-09-15T02:51:58.549Z,57.71
2022-09-15T02:54:25.750Z,58.17
2022-09-15T02:56:53.005Z,57.31
2022-09-15T02:59:20.267Z,58.36
2022-09-15T03:01:47.641Z,57.97
2022-09-15T03:04:14.959Z,58.04
2022-09-15T03:06:42.824Z,58.40
2022-09-15T03:09:10.152Z,58.75
2022-09-15T03:11:37.385Z,58.72
2022-09-15T03:14:06.583Z,58.81
2022-09-15T03:16:35.265Z,58.74
2022-09-15T03:19:03.695Z,58.57
2022-09-15T03:21:31.389Z,59.20
2022-09-15T03:23:59.059Z,59.58
2022-09-15T03:26:26.748Z,59.48
2022-09-15T03:28:54.040Z,59.34
2022-09-15T03:31:21.594Z,59.13
2022-09-15T03:33:49.343Z,59.40
2022-09-15T03:36:16.539Z,59.50
2022-09-15T03:38:43.790Z,59.71
2022-09-15T03:41:12.252Z,59.43
2022-09-15T03:43:39.818Z,60.00
2022-09-15T03:46:08.726Z,59.76
2022-09-15T03:48:36.641Z,59.96
2022-09-15T03:51:05.741Z,59.74
2022-09-15T03:53:34.609Z,59.42
2022-09-15T03:56:17.937Z,59.71
2022-09-15T03:58:45.250Z,59.78
2022-09-15T04:01:12.648Z,59.67
2022-09-15T04:03:45.207Z,59.93
2022-09-15T04:06:15.129Z,59.82
2022-09-15T04:08:42.477Z,59.49
2022-09-15T04:11:11.846Z,59.67
2022-09-15T04:13:40.351Z,59.71
2022-09-15T04:16:10.395Z,59.86
2022-09-15T04:18:37.700Z,60.07
2022-09-15T04:21:13.294Z,59.91
2022-09-15T04:23:41.390Z,59.67
2022-09-15T04:26:14.083Z,59.59
2022-09-15T04:28:41.333Z,59.80
2022-09-15T04:31:12.222Z,59.87
2022-09-15T04:33:41.955Z,59.69
2022-09-15T04:36:12.684Z,59.58
2022-09-15T04:38:40.272Z,59.64
2022-09-15T04:41:08.066Z,59.89
2022-09-15T04:43:35.693Z,59.73
2022-09-15T04:46:03.425Z,59.85
2022-09-15T04:48:31.782Z,59.57
2022-09-15T04:51:03.930Z,59.88
2022-09-15T04:53:31.287Z,59.75
2022-09-15T04:56:12.650Z,60.04
2022-09-15T04:58:45.954Z,59.91
2022-09-15T05:01:15.733Z,59.92
2022-09-15T05:03:44.223Z,60.00
2022-09-15T05:06:14.869Z,60.05
2022-09-15T05:08:42.238Z,60.04
2022-09-15T05:11:12.428Z,60.00
2022-09-15T05:13:40.957Z,59.97
2022-09-15T05:16:13.748Z,60.05
2022-09-15T05:18:41.967Z,59.80
2022-09-15T05:21:11.588Z,60.11
2022-09-15T05:23:39.908Z,60.21
2022-09-15T05:26:11.574Z,60.11
2022-09-15T05:28:39.807Z,59.96
2022-09-15T05:31:12.536Z,60.23
2022-09-15T05:33:39.767Z,60.21
2022-09-15T05:36:10.214Z,60.17
2022-09-15T05:38:37.568Z,59.96
2022-09-15T05:41:17.670Z,59.88
2022-09-15T05:43:46.715Z,59.82
2022-09-15T05:46:14.974Z,60.06
2022-09-15T05:48:42.974Z,60.18
2022-09-15T05:51:10.225Z,60.30
2022-09-15T05:53:38.183Z,60.06
2022-09-15T05:56:09.941Z,60.06
2022-09-15T05:58:42.227Z,60.18
2022-09-15T06:01:29.925Z,60.51
2022-09-15T06:03:58.641Z,60.45
2022-09-15T06:06:26.182Z,60.68
2022-09-15T06:08:58.517Z,59.98
2022-09-15T06:11:31.183Z,59.97
2022-09-15T06:14:03.319Z,59.73
2022-09-15T06:16:33.110Z,59.61
2022-09-15T06:19:03.491Z,60.39
2022-09-15T06:21:32.495Z,60.55
2022-09-15T06:24:03.399Z,60.42
2022-09-15T06:26:30.725Z,60.24
2022-09-15T06:29:02.868Z,60.21
2022-09-15T06:31:32.432Z,60.13
2022-09-15T06:34:00.536Z,59.69
2022-09-15T06:36:29.580Z,60.77
2022-09-15T06:38:57.068Z,61.09
2022-09-15T06:41:24.710Z,61.27
2022-09-15T06:43:53.141Z,61.91
2022-09-15T06:46:23.408Z,63.29
2022-09-15T06:48:52.072Z,63.26
2022-09-15T06:51:22.347Z,62.72
2022-09-15T06:53:50.033Z,62.91
2022-09-15T06:56:20.038Z,62.67
2022-09-15T06:58:50.357Z,62.87
2022-09-15T07:01:23.983Z,62.70
2022-09-15T07:03:51.970Z,62.38
2022-09-15T07:06:19.501Z,63.12
2022-09-15T07:08:47.386Z,63.06
2022-09-15T07:11:14.891Z,63.04
2022-09-15T07:13:42.645Z,62.87
2022-09-15T07:16:12.447Z,62.78
2022-09-15T07:18:43.297Z,62.74
2022-09-15T07:21:14.034Z,62.99
2022-09-15T07:23:42.002Z,63.36
2022-09-15T07:26:09.343Z,63.11
2022-09-15T07:28:37.350Z,63.01
2022-09-15T07:31:06.744Z,62.88
2022-09-15T07:33:34.407Z,63.07
2022-09-15T07:36:06.776Z,62.84
2022-09-15T07:38:35.302Z,62.60
2022-09-15T07:41:08.131Z,62.24
2022-09-15T07:43:36.080Z,61.73
2022-09-15T07:46:04.107Z,61.30
2022-09-15T07:48:32.024Z,60.99
2022-09-15T07:51:00.033Z,60.28
2022-09-15T07:53:30.787Z,59.74
2022-09-15T07:55:58.136Z,59.55
2022-09-15T07:58:25.536Z,59.72
2022-09-15T08:00:52.994Z,59.56
2022-09-15T08:03:20.299Z,59.63
2022-09-15T08:05:47.504Z,59.71
2022-09-15T08:08:14.775Z,59.66
2022-09-15T08:10:42.024Z,59.60
2022-09-15T08:13:09.247Z,59.70
2022-09-15T08:15:37.743Z,59.86
2022-09-15T08:18:06.174Z,59.89
2022-09-15T08:20:33.731Z,60.16
2022-09-15T08:23:01.995Z,60.41
2022-09-15T08:25:30.426Z,60.41
2022-09-15T08:27:59.597Z,60.26
2022-09-15T08:30:30.297Z,59.85
2022-09-15T08:32:57.635Z,59.92
2022-09-15T08:35:24.980Z,59.72
2022-09-15T08:37:54.970Z,59.98
2022-09-15T08:40:30.918Z,59.90
2022-09-15T08:43:03.709Z,59.78
2022-09-15T08:45:34.963Z,59.64
2022-09-15T08:48:04.895Z,59.60
2022-09-15T08:50:43.479Z,59.33
2022-09-15T08:53:23.841Z,58.44
2022-09-15T08:55:54.591Z,58.28
2022-09-15T08:58:24.799Z,58.33
2022-09-15T09:01:02.831Z,58.70
2022-09-15T09:03:58.635Z,58.26
2022-09-15T09:06:38.058Z,58.28
2022-09-15T09:09:24.424Z,58.37
2022-09-15T09:12:28.079Z,58.18
2022-09-15T09:15:01.167Z,58.17
2022-09-15T09:17:39.487Z,58.16
2022-09-15T09:20:32.122Z,58.17
2022-09-15T09:23:01.822Z,58.08
2022-09-15T09:25:29.555Z,57.91
2022-09-15T09:27:58.516Z,57.51
2022-09-15T09:30:29.716Z,57.13
2022-09-15T09:33:25.587Z,57.15
2022-09-15T09:35:53.332Z,57.08
2022-09-15T09:38:33.397Z,56.97
2022-09-15T09:41:02.699Z,56.74
2022-09-15T09:43:31.529Z,56.58
2022-09-15T09:45:59.382Z,56.33
2022-09-15T09:48:28.732Z,56.23
2022-09-15T09:50:56.483Z,56.34
2022-09-15T09:53:26.722Z,56.46
2022-09-15T09:55:55.819Z,56.73
2022-09-15T09:58:25.807Z,56.51
2022-09-15T10:00:53.443Z,56.74
2022-09-15T10:03:29.422Z,56.91
2022-09-15T10:06:02.066Z,57.04
2022-09-15T10:08:29.634Z,57.12
2022-09-15T10:11:03.851Z,57.25
2022-09-15T10:13:31.215Z,57.38
2022-09-15T10:16:01.329Z,57.54
2022-09-15T10:18:31.784Z,57.73
2022-09-15T10:21:00.775Z,57.87
2022-09-15T10:23:31.003Z,57.83
2022-09-15T10:26:19.479Z,57.89
2022-09-15T10:29:09.265Z,57.55
2022-09-15T10:31:36.817Z,57.18
2022-09-15T10:34:30.705Z,57.46
2022-09-15T10:37:16.671Z,57.40
2022-09-15T10:39:56.688Z,57.16
2022-09-15T10:42:42.037Z,57.15
2022-09-15T10:45:26.338Z,56.82
2022-09-15T10:48:20.644Z,56.61
2022-09-15T10:51:16.078Z,56.73
2022-09-15T10:53:46.296Z,56.77
2022-09-15T10:56:21.111Z,56.60
2022-09-15T10:59:15.960Z,56.80
2022-09-15T11:01:54.152Z,56.71
2022-09-15T11:04:44.620Z,56.67
2022-09-15T11:07:45.067Z,56.89
2022-09-15T11:10:20.639Z,57.58
2022-09-15T11:13:18.609Z,57.21
2022-09-15T11:16:09.167Z,57.33
2022-09-15T11:19:10.432Z,57.66
2022-09-15T11:21:53.325Z,57.61
2022-09-15T11:24:28.400Z,59.43
2022-09-15T11:27:22.263Z,59.11
2022-09-15T11:30:13.636Z,59.26
2022-09-15T11:33:02.829Z,59.81
2022-09-15T11:35:45.136Z,59.89
2022-09-15T11:38:31.034Z,59.63
2022-09-15T11:41:16.393Z,59.59
2022-09-15T11:43:54.115Z,59.41
2022-09-15T11:46:31.285Z,59.01
2022-09-15T11:49:16.973Z,59.13
2022-09-15T11:51:52.965Z,59.25
2022-09-15T11:54:34.749Z,60.06
2022-09-15T11:57:02.089Z,60.59
2022-09-15T12:00:00.741Z,61.04
2022-09-15T12:02:43.188Z,61.38
2022-09-15T12:05:28.701Z,60.79
2022-09-15T12:08:17.677Z,59.13
2022-09-15T12:10:55.055Z,58.78
2022-09-15T12:13:25.240Z,57.15
2022-09-15T12:15:53.514Z,57.42
2022-09-15T12:18:38.134Z,57.48
2022-09-15T12:21:29.990Z,58.66
2022-09-15T12:24:02.855Z,58.88
2022-09-15T12:26:33.046Z,59.27
2022-09-15T12:29:19.568Z,58.96
2022-09-15T12:31:47.356Z,58.62
2022-09-15T12:34:35.506Z,58.18
2022-09-15T12:37:14.671Z,57.98
2022-09-15T12:39:44.562Z,57.60
2022-09-15T12:42:18.632Z,57.16
2022-09-15T12:45:18.113Z,56.97
2022-09-15T12:48:05.032Z,55.80
2022-09-15T12:50:37.740Z,57.41
2022-09-15T12:53:22.005Z,57.61
2022-09-15T12:55:51.720Z,58.67
2022-09-15T12:58:45.782Z,59.76
2022-09-15T13:01:19.509Z,61.29
2022-09-15T13:03:48.843Z,62.54
2022-09-15T13:06:34.689Z,62.30
2022-09-15T13:09:01.995Z,62.69
2022-09-15T13:11:37.469Z,62.76
2022-09-15T13:14:07.895Z,62.49
2022-09-15T13:16:41.227Z,62.34
2022-09-15T13:19:50.449Z,62.28
2022-09-15T13:22:27.470Z,61.76
2022-09-15T13:25:01.570Z,61.48
2022-09-15T13:27:57.873Z,61.69
2022-09-15T13:30:52.957Z,61.78
2022-09-15T13:39:59.631Z,64.22
2022-09-15T13:42:47.224Z,64.49
2022-09-15T13:45:43.666Z,64.61
2022-09-15T13:48:39.793Z,65.05
2022-09-15T13:51:25.486Z,65.46
2022-09-15T13:53:56.831Z,66.13
2022-09-15T13:56:31.275Z,66.13
2022-09-15T13:59:10.402Z,65.63
2022-09-15T14:01:44.991Z,65.57
2022-09-15T14:04:19.317Z,65.23
2022-09-15T14:06:50.134Z,63.73
2022-09-15T14:09:24.941Z,63.37
2022-09-15T14:11:55.804Z,63.02
2022-09-15T14:14:44.503Z,63.44
2022-09-15T14:17:20.950Z,62.55
2022-09-15T14:19:50.448Z,62.30
2022-09-15T14:22:17.823Z,62.14
2022-09-15T14:24:45.538Z,62.05
2022-09-15T14:27:19.460Z,61.82
2022-09-15T14:29:50.264Z,62.11
2022-09-15T14:32:18.284Z,62.05
2022-09-15T14:34:49.124Z,62.58
2022-09-15T14:37:28.488Z,62.52
2022-09-15T14:39:58.192Z,62.91
2022-09-15T14:42:33.763Z,62.28
2022-09-15T14:48:16.135Z,61.47
2022-09-15T14:50:45.200Z,61.77
2022-09-15T14:53:20.082Z,62.21
2022-09-15T14:55:56.930Z,61.91
2022-09-15T14:58:41.866Z,62.29
2022-09-15T15:01:17.607Z,62.04
2022-09-15T15:03:53.294Z,62.01
2022-09-15T15:06:35.821Z,62.55
2022-09-15T15:09:07.008Z,61.99
2022-09-15T15:11:36.882Z,62.19
2022-09-15T15:14:08.084Z,61.66
2022-09-15T15:16:36.006Z,62.64
2022-09-15T15:19:03.421Z,62.54
2022-09-15T15:21:45.148Z,61.49
2022-09-15T15:24:15.184Z,60.48
2022-09-15T15:26:44.931Z,60.17
2022-09-15T15:29:37.063Z,60.44
2022-09-15T15:32:06.616Z,60.00
2022-09-15T15:34:34.530Z,60.34
2022-09-15T15:37:10.373Z,60.18
2022-09-15T15:39:37.692Z,59.67
2022-09-15T15:42:06.013Z,59.29
2022-09-15T15:44:33.496Z,59.26
2022-09-15T15:47:20.665Z,60.68
2022-09-15T15:50:11.777Z,61.28
2022-09-15T15:52:35.496Z,61.48
2022-09-15T15:55:02.855Z,60.97
2022-09-15T15:57:36.902Z,60.86
2022-09-15T16:00:20.898Z,60.12
2022-09-15T16:02:50.446Z,60.52
2022-09-15T16:05:19.726Z,60.35
2022-09-15T16:07:50.107Z,60.09
2022-09-15T16:10:21.043Z,60.82
2022-09-15T16:12:48.452Z,59.93
2022-09-15T16:15:18.876Z,59.98
2022-09-15T16:17:47.266Z,60.03
2022-09-15T16:20:25.159Z,59.82
2022-09-15T16:22:52.476Z,59.34
2022-09-15T16:25:35.408Z,59.61
2022-09-15T16:28:03.635Z,59.60
2022-09-15T16:30:31.946Z,59.37
2022-09-15T16:33:00.030Z,59.42
2022-09-15T16:35:36.265Z,59.50
2022-09-15T16:38:03.658Z,59.35
2022-09-15T16:40:30.996Z,59.23
2022-09-15T16:42:58.376Z,59.01
2022-09-15T16:45:39.782Z,59.16
2022-09-15T16:48:09.702Z,59.35
2022-09-15T16:50:39.793Z,58.97
2022-09-15T16:53:15.331Z,59.12
2022-09-15T16:55:47.713Z,59.07
2022-09-15T16:58:16.523Z,58.97
2022-09-15T17:00:45.507Z,58.90
2022-09-15T17:03:24.132Z,58.91
2022-09-15T17:05:57.504Z,58.94
2022-09-15T17:08:30.544Z,58.88
2022-09-15T17:11:00.490Z,58.81
2022-09-15T17:13:32.545Z,58.79
2022-09-15T17:16:01.174Z,58.72
2022-09-15T17:18:29.775Z,58.64
2022-09-15T17:20:57.000Z,58.73
2022-09-15T17:23:27.676Z,58.76
2022-09-15T17:25:58.481Z,58.69
2022-09-15T17:28:31.246Z,58.49
2022-09-15T17:31:18.676Z,58.70
2022-09-15T17:33:46.825Z,58.65
2022-09-15T17:36:14.994Z,58.59
2022-09-15T17:38:42.371Z,58.61
2022-09-15T17:41:20.694Z,58.53
2022-09-15T17:43:48.358Z,58.10
2022-09-15T17:46:15.926Z,57.91
2022-09-15T17:48:43.327Z,58.15
2022-09-15T17:51:17.084Z,58.37
2022-09-15T17:53:46.810Z,58.63
2022-09-15T17:56:14.268Z,58.64
2022-09-15T17:58:42.644Z,58.72
2022-09-15T18:01:13.381Z,58.59
2022-09-15T18:03:43.102Z,58.55
2022-09-15T18:06:10.901Z,58.49
2022-09-15T18:08:38.180Z,58.11
2022-09-15T18:11:06.293Z,58.29
2022-09-15T18:13:34.140Z,58.05
2022-09-15T18:16:12.858Z,58.27
2022-09-15T18:18:41.045Z,57.74
2022-09-15T18:21:15.631Z,57.81
2022-09-15T18:23:45.120Z,57.91
2022-09-15T18:26:12.393Z,57.11
2022-09-15T18:28:39.585Z,55.26
2022-09-15T18:31:07.429Z,55.70
2022-09-15T18:33:34.725Z,55.33
2022-09-15T18:36:02.201Z,54.79
2022-09-15T18:38:29.442Z,53.94
2022-09-15T18:40:57.892Z,54.09
2022-09-15T18:43:27.341Z,53.43
2022-09-15T18:45:59.822Z,53.12
2022-09-15T18:48:27.965Z,52.75
2022-09-15T18:50:55.367Z,53.08
2022-09-15T18:53:22.860Z,53.33
2022-09-15T18:55:50.263Z,53.50
2022-09-15T18:58:19.207Z,52.81
2022-09-15T19:00:46.776Z,52.68
2022-09-15T19:03:14.324Z,52.53
2022-09-15T19:05:41.840Z,52.34
2022-09-15T19:08:10.944Z,52.34
2022-09-15T19:10:43.844Z,52.50
2022-09-15T19:13:15.620Z,52.83
2022-09-15T19:15:44.016Z,52.84
2022-09-15T19:18:11.500Z,52.40
2022-09-15T19:20:40.240Z,52.22
2022-09-15T19:23:08.972Z,52.68
2022-09-15T19:25:36.857Z,52.60
2022-09-15T19:28:04.458Z,52.46
2022-09-15T19:30:31.877Z,52.55
2022-09-15T19:32:59.532Z,52.34
2022-09-15T19:35:29.192Z,51.69
2022-09-15T19:37:56.547Z,51.67
2022-09-15T19:40:24.096Z,51.34
2022-09-15T19:42:51.583Z,51.12
2022-09-15T19:45:18.958Z,51.44
2022-09-15T19:47:46.717Z,51.34
2022-09-15T19:50:14.069Z,51.90
2022-09-15T19:52:41.531Z,52.27
2022-09-15T19:55:09.904Z,52.47
2022-09-15T19:57:41.257Z,52.27
2022-09-15T20:00:11.605Z,52.72
2022-09-15T20:02:39.527Z,52.79
2022-09-15T20:05:07.858Z,53.02
2022-09-15T20:07:35.221Z,53.28
2022-09-15T20:10:02.687Z,53.18
2022-09-15T20:12:31.246Z,52.73
2022-09-15T20:14:58.660Z,52.47
2022-09-15T20:17:26.004Z,52.37
2022-09-15T20:19:53.326Z,51.75
2022-09-15T20:22:20.596Z,51.25
2022-09-15T20:24:47.894Z,50.18
2022-09-15T20:27:15.282Z,50.66
2022-09-15T20:29:42.643Z,49.42
2022-09-15T20:32:10.103Z,49.27
2022-09-15T20:34:37.556Z,48.77
2022-09-15T20:37:04.975Z,48.60
2022-09-15T20:39:32.526Z,49.15
2022-09-15T20:42:02.773Z,49.55
2022-09-15T20:44:30.105Z,49.26
2022-09-15T20:46:57.324Z,49.41
2022-09-15T20:49:24.630Z,49.07
2022-09-15T20:51:51.890Z,49.84
2022-09-15T20:54:19.284Z,49.51
2022-09-15T20:56:46.616Z,50.12
2022-09-15T20:59:14.415Z,50.07
2022-09-15T21:01:41.940Z,50.24
2022-09-15T21:04:10.989Z,50.09
2022-09-15T21:06:38.710Z,50.14
2022-09-15T21:09:06.577Z,49.63
2022-09-15T21:11:34.530Z,49.58
2022-09-15T21:14:03.194Z,49.91
2022-09-15T21:16:30.514Z,49.54
2022-09-15T21:18:58.721Z,49.44
2022-09-15T21:21:29.794Z,49.50
2022-09-15T21:24:03.436Z,49.33
2022-09-15T21:26:35.557Z,49.36
2022-09-15T21:29:02.968Z,49.93
2022-09-15T21:31:32.840Z,50.11
2022-09-15T21:34:00.494Z,50.53
2022-09-15T21:36:30.119Z,50.50
2022-09-15T21:38:59.305Z,50.29
2022-09-15T21:41:31.974Z,50.14
2022-09-15T21:44:00.663Z,50.64
2022-09-15T21:46:30.462Z,50.76
2022-09-15T21:48:59.689Z,50.33
2022-09-15T21:51:29.184Z,50.25
2022-09-15T21:53:58.424Z,50.34
2022-09-15T21:56:27.413Z,50.11
2022-09-15T21:58:54.952Z,50.03
2022-09-15T22:01:25.796Z,49.97
2022-09-15T22:03:58.727Z,50.03
2022-09-15T22:06:33.362Z,50.49
2022-09-15T22:09:07.334Z,50.47
2022-09-15T22:11:35.561Z,50.53
2022-09-15T22:14:08.143Z,50.68
2022-09-15T22:16:37.830Z,50.54
2022-09-15T22:19:07.077Z,50.43
2022-09-15T22:21:37.043Z,50.45
2022-09-15T22:24:06.970Z,50.33
2022-09-15T22:26:36.953Z,50.92
2022-09-15T22:29:05.486Z,50.20
2022-09-15T22:31:33.286Z,49.85
2022-09-15T22:34:00.710Z,49.62
2022-09-15T22:36:30.413Z,49.78
2022-09-15T22:39:05.075Z,49.84
2022-09-15T22:41:35.442Z,50.17
2022-09-15T22:44:04.398Z,50.04
2022-09-15T22:46:32.411Z,50.39
2022-09-15T22:49:00.007Z,50.50
2022-09-15T22:51:27.690Z,50.79
2022-09-15T22:53:56.743Z,50.94
2022-09-15T22:56:26.237Z,51.45
2022-09-15T22:58:55.127Z,51.61
2022-09-15T23:01:26.016Z,51.48
2022-09-15T23:03:55.849Z,51.68
2022-09-15T23:06:24.140Z,51.72
2022-09-15T23:08:53.671Z,51.74
2022-09-15T23:11:21.374Z,51.79
2022-09-15T23:13:49.050Z,51.70
2022-09-15T23:16:17.024Z,51.87
2022-09-15T23:18:44.719Z,51.77
2022-09-15T23:21:14.470Z,51.87
2022-09-15T23:23:44.322Z,51.93
2022-09-15T23:26:12.578Z,51.89
2022-09-15T23:28:40.285Z,51.92
2022-09-15T23:31:10.197Z,52.23
2022-09-15T23:33:37.830Z,51.98
2022-09-15T23:36:07.601Z,51.93
2022-09-15T23:38:36.417Z,52.16
2022-09-15T23:41:03.815Z,52.32
2022-09-15T23:43:33.131Z,52.18
2022-09-15T23:46:01.527Z,52.41
2022-09-15T23:48:31.554Z,52.25
2022-09-15T23:50:59.228Z,52.31
2022-09-15T23:53:26.943Z,52.32
2022-09-15T23:55:54.517Z,52.32
2022-09-15T23:58:21.816Z,52.52
